sensor_id;sensor_type;location;lat;lon;timestamp;pressure;altitude;pressure_sealevel;temperature;humidity
49122;BME280;35529;44.342;25.944;2022-09-21T00:01:11;100716.44;;;9.38;100.00
49122;BME280;35529;44.342;25.944;2022-09-21T00:03:37;100726.75;;;9.33;100.00
49122;BME280;35529;44.342;25.944;2022-09-21T00:06:07;100726.31;;;9.30;100.00
49122;BME280;35529;44.342;25.944;2022-09-21T00:08:33;100725.19;;;9.24;100.00
49122;BME280;35529;44.342;25.944;2022-09-21T00:11:00;100733.72;;;9.19;100.00
49122;BME280;35529;44.342;25.944;2022-09-21T00:13:26;100723.63;;;9.15;100.00
49122;BME280;35529;44.342;25.944;2022-09-21T00:15:53;100733.13;;;9.09;100.00
49122;BME280;35529;44.342;25.944;2022-09-21T00:18:21;100729.56;;;9.02;100.00
49122;BME280;35529;44.342;25.944;2022-09-21T00:20:47;100731.34;;;8.86;100.00
49122;BME280;35529;44.342;25.944;2022-09-21T00:23:14;100728.25;;;8.83;100.00
49122;BME280;35529;44.342;25.944;2022-09-21T00:25:40;100732.38;;;8.85;100.00
49122;BME280;35529;44.342;25.944;2022-09-21T00:28:06;100731.25;;;8.80;100.00
49122;BME280;35529;44.342;25.944;2022-09-21T00:30:32;100731.06;;;8.81;100.00
49122;BME280;35529;44.342;25.944;2022-09-21T00:32:58;100730.69;;;8.69;100.00
49122;BME280;35529;44.342;25.944;2022-09-21T00:35:25;100740.31;;;8.62;100.00
49122;BME280;35529;44.342;25.944;2022-09-21T00:37:53;100735.69;;;8.64;100.00
49122;BME280;35529;44.342;25.944;2022-09-21T00:40:20;100738.16;;;8.66;100.00
49122;BME280;35529;44.342;25.944;2022-09-21T00:42:46;100729.31;;;8.74;100.00
49122;BME280;35529;44.342;25.944;2022-09-21T00:45:12;100730.25;;;8.81;100.00
49122;BME280;35529;44.342;25.944;2022-09-21T00:47:47;100731.81;;;8.90;100.00
49122;BME280;35529;44.342;25.944;2022-09-21T00:50:16;100740.88;;;8.96;100.00
49122;BME280;35529;44.342;25.944;2022-09-21T00:52:45;100742.72;;;8.95;100.00
49122;BME280;35529;44.342;25.944;2022-09-21T00:55:19;100742.34;;;8.98;100.00
49122;BME280;35529;44.342;25.944;2022-09-21T00:57:47;100741.34;;;8.99;100.00
49122;BME280;35529;44.342;25.944;2022-09-21T01:00:16;100748.59;;;9.05;100.00
49122;BME280;35529;44.342;25.944;2022-09-21T01:02:42;100749.03;;;9.09;100.00
49122;BME280;35529;44.342;25.944;2022-09-21T01:05:08;100749.69;;;9.11;100.00
49122;BME280;35529;44.342;25.944;2022-09-21T01:07:36;100749.13;;;9.16;100.00
49122;BME280;35529;44.342;25.944;2022-09-21T01:10:05;100740.84;;;9.19;100.00
49122;BME280;35529;44.342;25.944;2022-09-21T01:12:50;100738.19;;;9.19;100.00
49122;BME280;35529;44.342;25.944;2022-09-21T01:31:37;100742.47;;;9.35;100.00
49122;BME280;35529;44.342;25.944;2022-09-21T01:34:09;100731.06;;;9.34;100.00
49122;BME280;35529;44.342;25.944;2022-09-21T01:36:36;100736.00;;;9.37;100.00
49122;BME280;35529;44.342;25.944;2022-09-21T01:39:06;100734.63;;;9.42;100.00
49122;BME280;35529;44.342;25.944;2022-09-21T01:41:33;100732.44;;;9.45;100.00
49122;BME280;35529;44.342;25.944;2022-09-21T01:44:05;100735.56;;;9.49;100.00
49122;BME280;35529;44.342;25.944;2022-09-21T01:46:33;100743.31;;;9.50;100.00
49122;BME280;35529;44.342;25.944;2022-09-21T01:49:03;100741.28;;;9.37;100.00
49122;BME280;35529;44.342;25.944;2022-09-21T01:51:31;100744.03;;;9.29;100.00
49122;BME280;35529;44.342;25.944;2022-09-21T01:54:00;100740.00;;;9.33;100.00
49122;BME280;35529;44.342;25.944;2022-09-21T01:56:39;100740.00;;;9.33;100.00
49122;BME280;35529;44.342;25.944;2022-09-21T01:59:31;100746.47;;;9.16;100.00
49122;BME280;35529;44.342;25.944;2022-09-21T02:01:56;100746.34;;;8.94;100.00
49122;BME280;35529;44.342;25.944;2022-09-21T02:04:23;100746.94;;;9.04;100.00
49122;BME280;35529;44.342;25.944;2022-09-21T02:06:54;100754.03;;;9.04;100.00
49122;BME280;35529;44.342;25.944;2022-09-21T02:09:26;100749.22;;;9.08;100.00
49122;BME280;35529;44.342;25.944;2022-09-21T02:11:52;100746.78;;;9.21;100.00
49122;BME280;35529;44.342;25.944;2022-09-21T02:14:21;100752.25;;;9.34;100.00
49122;BME280;35529;44.342;25.944;2022-09-21T02:16:54;100752.09;;;9.51;100.00
49122;BME280;35529;44.342;25.944;2022-09-21T02:19:32;100745.78;;;9.67;100.00
49122;BME280;35529;44.342;25.944;2022-09-21T02:22:09;100758.84;;;9.68;100.00
49122;BME280;35529;44.342;25.944;2022-09-21T02:24:53;100755.47;;;9.75;100.00
49122;BME280;35529;44.342;25.944;2022-09-21T02:35:19;100757.31;;;9.59;100.00
49122;BME280;35529;44.342;25.944;2022-09-21T02:37:50;100750.72;;;9.70;100.00
49122;BME280;35529;44.342;25.944;2022-09-21T02:40:27;100749.97;;;9.76;100.00
49122;BME280;35529;44.342;25.944;2022-09-21T02:43:02;100752.91;;;9.81;100.00
49122;BME280;35529;44.342;25.944;2022-09-21T02:46:02;100750.91;;;9.83;100.00
49122;BME280;35529;44.342;25.944;2022-09-21T02:48:33;100755.66;;;9.73;100.00
49122;BME280;35529;44.342;25.944;2022-09-21T02:51:11;100752.63;;;9.76;100.00
49122;BME280;35529;44.342;25.944;2022-09-21T02:53:39;100752.44;;;9.78;100.00
49122;BME280;35529;44.342;25.944;2022-09-21T02:56:12;100757.66;;;9.86;100.00
49122;BME280;35529;44.342;25.944;2022-09-21T02:58:46;100758.47;;;10.01;100.00
49122;BME280;35529;44.342;25.944;2022-09-21T03:01:24;100757.59;;;10.16;100.00
49122;BME280;35529;44.342;25.944;2022-09-21T03:04:01;100756.56;;;10.32;100.00
49122;BME280;35529;44.342;25.944;2022-09-21T03:06:35;100751.63;;;10.44;100.00
49122;BME280;35529;44.342;25.944;2022-09-21T03:09:07;100751.50;;;10.52;100.00
49122;BME280;35529;44.342;25.944;2022-09-21T03:11:33;100752.16;;;10.61;100.00
49122;BME280;35529;44.342;25.944;2022-09-21T03:14:01;100748.97;;;10.65;100.00
49122;BME280;35529;44.342;25.944;2022-09-21T03:16:30;100753.28;;;10.66;100.00
49122;BME280;35529;44.342;25.944;2022-09-21T03:18:56;100748.25;;;10.56;100.00
49122;BME280;35529;44.342;25.944;2022-09-21T03:21:22;100750.59;;;10.45;100.00
49122;BME280;35529;44.342;25.944;2022-09-21T03:23:48;100756.09;;;10.28;100.00
49122;BME280;35529;44.342;25.944;2022-09-21T03:26:14;100752.59;;;10.06;100.00
49122;BME280;35529;44.342;25.944;2022-09-21T03:28:40;100756.38;;;9.97;100.00
49122;BME280;35529;44.342;25.944;2022-09-21T03:31:06;100767.59;;;9.99;100.00
49122;BME280;35529;44.342;25.944;2022-09-21T03:33:33;100761.22;;;9.93;100.00
49122;BME280;35529;44.342;25.944;2022-09-21T03:35:59;100761.59;;;9.90;100.00
49122;BME280;35529;44.342;25.944;2022-09-21T03:38:25;100764.34;;;9.97;100.00
49122;BME280;35529;44.342;25.944;2022-09-21T03:40:51;100757.84;;;9.99;100.00
49122;BME280;35529;44.342;25.944;2022-09-21T03:43:19;100765.03;;;10.05;100.00
49122;BME280;35529;44.342;25.944;2022-09-21T03:45:47;100764.72;;;10.15;100.00
49122;BME280;35529;44.342;25.944;2022-09-21T03:48:16;100774.59;;;10.21;100.00
49122;BME280;35529;44.342;25.944;2022-09-21T03:50:42;100763.25;;;10.28;100.00
49122;BME280;35529;44.342;25.944;2022-09-21T03:53:09;100762.97;;;10.37;100.00
49122;BME280;35529;44.342;25.944;2022-09-21T03:55:35;100769.81;;;10.47;100.00
49122;BME280;35529;44.342;25.944;2022-09-21T03:58:01;100762.72;;;10.54;100.00
49122;BME280;35529;44.342;25.944;2022-09-21T04:00:28;100768.94;;;10.61;100.00
49122;BME280;35529;44.342;25.944;2022-09-21T04:02:54;100777.09;;;10.60;100.00
49122;BME280;35529;44.342;25.944;2022-09-21T04:05:20;100768.88;;;10.54;100.00
49122;BME280;35529;44.342;25.944;2022-09-21T04:07:49;100773.19;;;10.55;100.00
49122;BME280;35529;44.342;25.944;2022-09-21T04:10:24;100777.78;;;10.47;100.00
49122;BME280;35529;44.342;25.944;2022-09-21T04:12:57;100775.00;;;10.55;100.00
49122;BME280;35529;44.342;25.944;2022-09-21T04:15:26;100778.56;;;10.62;100.00
49122;BME280;35529;44.342;25.944;2022-09-21T04:17:55;100786.75;;;10.67;100.00
49122;BME280;35529;44.342;25.944;2022-09-21T04:20:25;100784.16;;;10.52;100.00
49122;BME280;35529;44.342;25.944;2022-09-21T04:22:51;100791.06;;;10.47;100.00
49122;BME280;35529;44.342;25.944;2022-09-21T04:25:19;100793.06;;;10.45;100.00
49122;BME280;35529;44.342;25.944;2022-09-21T04:27:46;100794.81;;;10.37;100.00
49122;BME280;35529;44.342;25.944;2022-09-21T04:30:15;100792.25;;;10.44;100.00
49122;BME280;35529;44.342;25.944;2022-09-21T04:32:45;100787.34;;;10.63;100.00
49122;BME280;35529;44.342;25.944;2022-09-21T04:35:14;100802.59;;;10.76;100.00
49122;BME280;35529;44.342;25.944;2022-09-21T04:37:45;100803.91;;;10.86;100.00
49122;BME280;35529;44.342;25.944;2022-09-21T04:40:17;100803.34;;;10.91;100.00
49122;BME280;35529;44.342;25.944;2022-09-21T04:42:43;100798.22;;;10.89;100.00
49122;BME280;35529;44.342;25.944;2022-09-21T04:45:11;100802.94;;;10.94;100.00
49122;BME280;35529;44.342;25.944;2022-09-21T04:47:41;100804.84;;;11.00;100.00
49122;BME280;35529;44.342;25.944;2022-09-21T04:50:10;100799.97;;;11.04;100.00
49122;BME280;35529;44.342;25.944;2022-09-21T04:52:39;100791.66;;;11.14;100.00
49122;BME280;35529;44.342;25.944;2022-09-21T04:55:10;100792.41;;;11.29;100.00
49122;BME280;35529;44.342;25.944;2022-09-21T04:57:41;100792.72;;;11.48;100.00
49122;BME280;35529;44.342;25.944;2022-09-21T05:00:12;100794.47;;;11.62;100.00
49122;BME280;35529;44.342;25.944;2022-09-21T05:02:40;100804.16;;;11.77;100.00
49122;BME280;35529;44.342;25.944;2022-09-21T05:05:11;100794.16;;;11.85;100.00
49122;BME280;35529;44.342;25.944;2022-09-21T05:07:43;100800.94;;;11.88;100.00
49122;BME280;35529;44.342;25.944;2022-09-21T05:10:12;100800.13;;;11.87;100.00
49122;BME280;35529;44.342;25.944;2022-09-21T05:12:42;100798.34;;;11.95;100.00
49122;BME280;35529;44.342;25.944;2022-09-21T05:15:11;100801.03;;;12.01;100.00
49122;BME280;35529;44.342;25.944;2022-09-21T05:17:40;100794.28;;;12.05;100.00
49122;BME280;35529;44.342;25.944;2022-09-21T05:20:11;100799.25;;;12.09;100.00
49122;BME280;35529;44.342;25.944;2022-09-21T05:22:39;100794.94;;;12.14;100.00
49122;BME280;35529;44.342;25.944;2022-09-21T05:25:08;100796.81;;;12.14;100.00
49122;BME280;35529;44.342;25.944;2022-09-21T05:27:37;100806.63;;;12.13;100.00
49122;BME280;35529;44.342;25.944;2022-09-21T05:30:04;100793.09;;;12.15;100.00
49122;BME280;35529;44.342;25.944;2022-09-21T05:32:48;100795.38;;;12.18;100.00
49122;BME280;35529;44.342;25.944;2022-09-21T05:35:41;100797.84;;;12.19;100.00
49122;BME280;35529;44.342;25.944;2022-09-21T05:38:16;100790.72;;;12.33;100.00
49122;BME280;35529;44.342;25.944;2022-09-21T05:40:49;100796.72;;;12.49;100.00
49122;BME280;35529;44.342;25.944;2022-09-21T05:43:16;100790.19;;;12.58;100.00
49122;BME280;35529;44.342;25.944;2022-09-21T05:45:47;100796.75;;;12.69;100.00
49122;BME280;35529;44.342;25.944;2022-09-21T05:48:18;100789.16;;;12.86;100.00
49122;BME280;35529;44.342;25.944;2022-09-21T05:53:37;100791.44;;;13.02;100.00
49122;BME280;35529;44.342;25.944;2022-09-21T05:56:51;100787.75;;;13.17;100.00
49122;BME280;35529;44.342;25.944;2022-09-21T06:04:22;100794.56;;;13.98;98.86
49122;BME280;35529;44.342;25.944;2022-09-21T06:06:51;100801.06;;;14.22;97.79
49122;BME280;35529;44.342;25.944;2022-09-21T06:09:22;100809.44;;;14.33;94.44
49122;BME280;35529;44.342;25.944;2022-09-21T06:11:55;100806.97;;;14.31;93.29
49122;BME280;35529;44.342;25.944;2022-09-21T06:14:24;100806.72;;;14.39;91.86
49122;BME280;35529;44.342;25.944;2022-09-21T06:16:55;100808.97;;;14.42;90.85
49122;BME280;35529;44.342;25.944;2022-09-21T06:19:26;100814.94;;;14.45;90.87
49122;BME280;35529;44.342;25.944;2022-09-21T06:21:57;100812.50;;;14.36;90.07
49122;BME280;35529;44.342;25.944;2022-09-21T06:24:31;100801.31;;;14.53;90.38
49122;BME280;35529;44.342;25.944;2022-09-21T06:27:00;100799.16;;;14.75;89.94
49122;BME280;35529;44.342;25.944;2022-09-21T06:29:26;100806.94;;;15.08;88.46
49122;BME280;35529;44.342;25.944;2022-09-21T06:31:56;100807.75;;;15.34;86.38
49122;BME280;35529;44.342;25.944;2022-09-21T06:34:30;100798.50;;;15.55;84.36
49122;BME280;35529;44.342;25.944;2022-09-21T06:36:59;100805.59;;;15.43;84.57
49122;BME280;35529;44.342;25.944;2022-09-21T06:39:27;100810.22;;;15.54;84.76
49122;BME280;35529;44.342;25.944;2022-09-21T06:41:59;100809.09;;;15.87;84.00
49122;BME280;35529;44.342;25.944;2022-09-21T06:44:28;100809.28;;;16.23;81.50
49122;BME280;35529;44.342;25.944;2022-09-21T06:46:57;100808.00;;;16.56;79.59
49122;BME280;35529;44.342;25.944;2022-09-21T06:49:26;100801.66;;;16.81;77.93
49122;BME280;35529;44.342;25.944;2022-09-21T06:51:57;100809.19;;;17.02;75.60
49122;BME280;35529;44.342;25.944;2022-09-21T06:54:26;100802.56;;;17.17;73.69
49122;BME280;35529;44.342;25.944;2022-09-21T06:56:54;100807.00;;;17.35;71.64
49122;BME280;35529;44.342;25.944;2022-09-21T06:59:25;100804.41;;;17.52;69.96
49122;BME280;35529;44.342;25.944;2022-09-21T07:01:53;100805.13;;;17.59;66.84
49122;BME280;35529;44.342;25.944;2022-09-21T07:04:25;100805.81;;;17.66;65.89
49122;BME280;35529;44.342;25.944;2022-09-21T07:06:56;100808.34;;;17.85;63.74
49122;BME280;35529;44.342;25.944;2022-09-21T07:09:24;100804.94;;;18.01;62.23
49122;BME280;35529;44.342;25.944;2022-09-21T07:11:52;100803.53;;;18.11;60.84
49122;BME280;35529;44.342;25.944;2022-09-21T07:14:24;100804.78;;;18.20;58.81
49122;BME280;35529;44.342;25.944;2022-09-21T07:16:56;100806.75;;;18.24;58.36
49122;BME280;35529;44.342;25.944;2022-09-21T07:19:30;100813.44;;;18.22;58.53
49122;BME280;35529;44.342;25.944;2022-09-21T07:21:56;100817.56;;;18.13;58.39
49122;BME280;35529;44.342;25.944;2022-09-21T07:24:27;100811.84;;;17.97;56.83
49122;BME280;35529;44.342;25.944;2022-09-21T07:26:56;100811.19;;;17.66;57.25
49122;BME280;35529;44.342;25.944;2022-09-21T07:29:27;100810.50;;;17.35;57.61
49122;BME280;35529;44.342;25.944;2022-09-21T07:31:53;100811.66;;;17.16;58.18
49122;BME280;35529;44.342;25.944;2022-09-21T07:34:22;100815.72;;;16.95;58.62
49122;BME280;35529;44.342;25.944;2022-09-21T07:36:48;100813.88;;;16.76;59.73
49122;BME280;35529;44.342;25.944;2022-09-21T07:39:19;100813.59;;;16.54;59.84
49122;BME280;35529;44.342;25.944;2022-09-21T07:41:48;100816.19;;;16.31;60.20
49122;BME280;35529;44.342;25.944;2022-09-21T07:44:23;100813.28;;;16.14;61.45
49122;BME280;35529;44.342;25.944;2022-09-21T07:46:49;100812.63;;;16.18;62.43
49122;BME280;35529;44.342;25.944;2022-09-21T07:49:20;100805.22;;;16.32;63.42
49122;BME280;35529;44.342;25.944;2022-09-21T07:51:51;100805.06;;;16.46;63.26
49122;BME280;35529;44.342;25.944;2022-09-21T07:54:19;100809.44;;;16.58;62.75
49122;BME280;35529;44.342;25.944;2022-09-21T07:56:48;100804.09;;;16.70;61.53
49122;BME280;35529;44.342;25.944;2022-09-21T07:59:36;100802.69;;;16.80;58.98
49122;BME280;35529;44.342;25.944;2022-09-21T08:02:05;100797.03;;;16.88;58.91
49122;BME280;35529;44.342;25.944;2022-09-21T08:04:36;100799.28;;;17.03;58.55
49122;BME280;35529;44.342;25.944;2022-09-21T08:07:08;100799.31;;;17.15;57.14
49122;BME280;35529;44.342;25.944;2022-09-21T08:09:38;100796.03;;;17.24;56.49
49122;BME280;35529;44.342;25.944;2022-09-21T08:12:06;100803.72;;;17.33;55.72
49122;BME280;35529;44.342;25.944;2022-09-21T08:14:34;100794.28;;;17.30;54.11
49122;BME280;35529;44.342;25.944;2022-09-21T08:17:03;100797.88;;;17.48;54.77
49122;BME280;35529;44.342;25.944;2022-09-21T08:19:32;100799.97;;;17.69;54.12
49122;BME280;35529;44.342;25.944;2022-09-21T08:22:02;100801.22;;;17.90;52.39
49122;BME280;35529;44.342;25.944;2022-09-21T08:24:33;100800.97;;;18.04;50.53
49122;BME280;35529;44.342;25.944;2022-09-21T08:27:00;100799.41;;;18.20;50.83
49122;BME280;35529;44.342;25.944;2022-09-21T08:29:26;100795.19;;;18.53;50.74
49122;BME280;35529;44.342;25.944;2022-09-21T08:31:56;100793.56;;;18.86;48.85
49122;BME280;35529;44.342;25.944;2022-09-21T08:34:25;100790.25;;;19.13;47.05
49122;BME280;35529;44.342;25.944;2022-09-21T08:36:53;100785.72;;;19.52;46.88
49122;BME280;35529;44.342;25.944;2022-09-21T08:39:22;100785.75;;;19.97;45.33
49122;BME280;35529;44.342;25.944;2022-09-21T08:44:26;100780.47;;;20.56;42.09
49122;BME280;35529;44.342;25.944;2022-09-21T08:46:59;100777.50;;;20.58;40.64
49122;BME280;35529;44.342;25.944;2022-09-21T08:49:27;100777.28;;;20.65;40.69
49122;BME280;35529;44.342;25.944;2022-09-21T08:51:57;100779.81;;;20.71;40.75
49122;BME280;35529;44.342;25.944;2022-09-21T08:54:46;100779.63;;;20.83;40.00
49122;BME280;35529;44.342;25.944;2022-09-21T08:57:18;100769.72;;;20.94;39.74
49122;BME280;35529;44.342;25.944;2022-09-21T08:59:47;100768.09;;;20.93;39.33
49122;BME280;35529;44.342;25.944;2022-09-21T09:04:58;100766.94;;;20.84;40.09
49122;BME280;35529;44.342;25.944;2022-09-21T09:07:46;100763.19;;;20.85;39.88
49122;BME280;35529;44.342;25.944;2022-09-21T09:10:37;100754.06;;;20.96;39.09
49122;BME280;35529;44.342;25.944;2022-09-21T09:18:42;100752.31;;;20.20;38.78
49122;BME280;35529;44.342;25.944;2022-09-21T09:21:27;100753.81;;;19.83;38.50
49122;BME280;35529;44.342;25.944;2022-09-21T09:23:58;100750.00;;;19.62;39.28
49122;BME280;35529;44.342;25.944;2022-09-21T09:26:37;100755.88;;;19.37;40.14
49122;BME280;35529;44.342;25.944;2022-09-21T09:31:57;100757.66;;;19.09;40.23
49122;BME280;35529;44.342;25.944;2022-09-21T09:37:01;100739.88;;;18.91;41.18
49122;BME280;35529;44.342;25.944;2022-09-21T09:39:36;100742.22;;;19.04;41.59
49122;BME280;35529;44.342;25.944;2022-09-21T09:44:53;100744.19;;;19.09;40.45
49122;BME280;35529;44.342;25.944;2022-09-21T09:50:26;100735.84;;;19.50;41.27
49122;BME280;35529;44.342;25.944;2022-09-21T09:52:58;100731.81;;;19.91;40.59
49122;BME280;35529;44.342;25.944;2022-09-21T09:58:31;100741.50;;;20.74;39.44
49122;BME280;35529;44.342;25.944;2022-09-21T10:01:02;100732.59;;;21.12;38.51
49122;BME280;35529;44.342;25.944;2022-09-21T10:03:33;100726.53;;;21.47;38.37
49122;BME280;35529;44.342;25.944;2022-09-21T10:06:01;100734.56;;;21.90;37.64
49122;BME280;35529;44.342;25.944;2022-09-21T10:08:43;100729.25;;;22.16;37.63
49122;BME280;35529;44.342;25.944;2022-09-21T10:11:15;100726.88;;;22.45;37.73
49122;BME280;35529;44.342;25.944;2022-09-21T10:13:47;100730.66;;;22.65;36.35
49122;BME280;35529;44.342;25.944;2022-09-21T10:18:55;100723.88;;;22.77;35.00
49122;BME280;35529;44.342;25.944;2022-09-21T10:21:25;100729.81;;;23.05;37.19
49122;BME280;35529;44.342;25.944;2022-09-21T10:24:02;100724.28;;;23.41;35.15
49122;BME280;35529;44.342;25.944;2022-09-21T10:27:16;100721.03;;;23.50;34.40
49122;BME280;35529;44.342;25.944;2022-09-21T10:29:28;100728.59;;;23.48;33.75
49122;BME280;35529;44.342;25.944;2022-09-21T10:32:04;100729.25;;;22.88;31.01
49122;BME280;35529;44.342;25.944;2022-09-21T10:34:35;100728.13;;;22.01;34.46
49122;BME280;35529;44.342;25.944;2022-09-21T10:37:24;100725.44;;;22.22;33.87
49122;BME280;35529;44.342;25.944;2022-09-21T10:39:54;100716.38;;;21.59;33.70
49122;BME280;35529;44.342;25.944;2022-09-21T10:42:25;100715.78;;;21.52;35.34
49122;BME280;35529;44.342;25.944;2022-09-21T10:45:06;100715.97;;;21.30;34.87
49122;BME280;35529;44.342;25.944;2022-09-21T10:47:41;100712.22;;;21.41;33.75
49122;BME280;35529;44.342;25.944;2022-09-21T10:50:33;100717.09;;;21.39;34.09
49122;BME280;35529;44.342;25.944;2022-09-21T10:55:40;100705.41;;;22.07;34.46
49122;BME280;35529;44.342;25.944;2022-09-21T10:58:08;100710.63;;;22.55;33.72
49122;BME280;35529;44.342;25.944;2022-09-21T11:00:43;100704.88;;;22.93;33.21
49122;BME280;35529;44.342;25.944;2022-09-21T11:05:58;100705.44;;;22.85;31.12
49122;BME280;35529;44.342;25.944;2022-09-21T11:08:32;100707.09;;;22.29;31.71
49122;BME280;35529;44.342;25.944;2022-09-21T11:13:29;100704.00;;;21.79;33.26
49122;BME280;35529;44.342;25.944;2022-09-21T11:18:48;100702.94;;;21.85;33.54
49122;BME280;35529;44.342;25.944;2022-09-21T11:21:31;100700.00;;;21.97;33.28
49122;BME280;35529;44.342;25.944;2022-09-21T11:26:54;100696.47;;;21.91;33.69
49122;BME280;35529;44.342;25.944;2022-09-21T11:29:50;100703.56;;;22.18;34.60
49122;BME280;35529;44.342;25.944;2022-09-21T11:34:57;100686.44;;;21.71;35.32
49122;BME280;35529;44.342;25.944;2022-09-21T11:37:39;100683.13;;;21.59;34.63
49122;BME280;35529;44.342;25.944;2022-09-21T11:42:51;100686.53;;;22.33;35.25
49122;BME280;35529;44.342;25.944;2022-09-21T11:45:33;100673.25;;;22.73;33.24
49122;BME280;35529;44.342;25.944;2022-09-21T11:56:15;100661.34;;;22.27;31.78
49122;BME280;35529;44.342;25.944;2022-09-21T11:58:50;100653.25;;;22.38;31.52
49122;BME280;35529;44.342;25.944;2022-09-21T12:01:47;100662.72;;;22.15;31.63
49122;BME280;35529;44.342;25.944;2022-09-21T12:06:55;100665.97;;;22.12;31.72
49122;BME280;35529;44.342;25.944;2022-09-21T12:12:05;100663.25;;;21.22;32.55
49122;BME280;35529;44.342;25.944;2022-09-21T12:14:47;100663.78;;;20.71;33.50
49122;BME280;35529;44.342;25.944;2022-09-21T12:22:31;100663.69;;;19.96;35.02
49122;BME280;35529;44.342;25.944;2022-09-21T12:25:10;100661.19;;;19.67;35.84
49122;BME280;35529;44.342;25.944;2022-09-21T12:27:40;100664.78;;;19.51;35.96
49122;BME280;35529;44.342;25.944;2022-09-21T12:30:11;100655.75;;;19.62;37.06
49122;BME280;35529;44.342;25.944;2022-09-21T12:44:27;100653.09;;;20.54;34.54
49122;BME280;35529;44.342;25.944;2022-09-21T12:47:10;100652.22;;;20.81;34.32
49122;BME280;35529;44.342;25.944;2022-09-21T12:49:45;100651.81;;;21.00;34.53
49122;BME280;35529;44.342;25.944;2022-09-21T12:52:26;100645.72;;;21.25;33.80
49122;BME280;35529;44.342;25.944;2022-09-21T13:00:10;100640.00;;;22.10;31.91
49122;BME280;35529;44.342;25.944;2022-09-21T13:05:12;100639.47;;;22.55;31.14
49122;BME280;35529;44.342;25.944;2022-09-21T13:10:30;100638.31;;;22.87;31.24
49122;BME280;35529;44.342;25.944;2022-09-21T13:12:58;100637.75;;;22.90;30.37
49122;BME280;35529;44.342;25.944;2022-09-21T13:15:28;100637.22;;;22.88;30.62
49122;BME280;35529;44.342;25.944;2022-09-21T13:18:05;100632.06;;;22.91;34.26
49122;BME280;35529;44.342;25.944;2022-09-21T13:20:35;100628.63;;;22.34;30.38
49122;BME280;35529;44.342;25.944;2022-09-21T13:23:05;100633.75;;;21.89;33.09
49122;BME280;35529;44.342;25.944;2022-09-21T13:25:42;100637.06;;;21.28;31.48
49122;BME280;35529;44.342;25.944;2022-09-21T13:30:45;100634.91;;;21.25;32.00
49122;BME280;35529;44.342;25.944;2022-09-21T13:43:58;100625.16;;;20.01;35.87
49122;BME280;35529;44.342;25.944;2022-09-21T13:51:51;100621.91;;;19.71;37.36
49122;BME280;35529;44.342;25.944;2022-09-21T13:54:20;100636.09;;;19.89;37.49
49122;BME280;35529;44.342;25.944;2022-09-21T13:57:49;100633.53;;;19.99;36.92
49122;BME280;35529;44.342;25.944;2022-09-21T13:59:47;100630.63;;;20.43;37.95
49122;BME280;35529;44.342;25.944;2022-09-21T14:05:03;100624.41;;;20.75;36.31
49122;BME280;35529;44.342;25.944;2022-09-21T14:07:33;100628.34;;;20.63;35.48
49122;BME280;35529;44.342;25.944;2022-09-21T14:10:02;100634.75;;;20.51;36.69
49122;BME280;35529;44.342;25.944;2022-09-21T14:12:31;100623.56;;;20.32;36.34
49122;BME280;35529;44.342;25.944;2022-09-21T14:17:38;100624.06;;;20.29;36.91
49122;BME280;35529;44.342;25.944;2022-09-21T14:20:23;100623.78;;;20.25;37.63
49122;BME280;35529;44.342;25.944;2022-09-21T14:25:48;100632.31;;;20.87;36.50
49122;BME280;35529;44.342;25.944;2022-09-21T14:28:16;100633.84;;;20.73;36.18
49122;BME280;35529;44.342;25.944;2022-09-21T14:30:50;100629.78;;;20.70;36.79
49122;BME280;35529;44.342;25.944;2022-09-21T14:33:21;100628.03;;;20.54;35.82
49122;BME280;35529;44.342;25.944;2022-09-21T14:35:51;100625.78;;;20.40;36.06
49122;BME280;35529;44.342;25.944;2022-09-21T14:38:24;100631.88;;;20.31;36.10
49122;BME280;35529;44.342;25.944;2022-09-21T14:41:02;100621.84;;;20.21;35.79
49122;BME280;35529;44.342;25.944;2022-09-21T14:43:35;100626.63;;;20.14;37.29
49122;BME280;35529;44.342;25.944;2022-09-21T14:46:21;100625.44;;;19.99;37.22
49122;BME280;35529;44.342;25.944;2022-09-21T14:51:46;100623.09;;;19.81;36.14
49122;BME280;35529;44.342;25.944;2022-09-21T14:54:21;100620.97;;;19.83;36.44
49122;BME280;35529;44.342;25.944;2022-09-21T15:02:15;100619.72;;;19.68;36.85
49122;BME280;35529;44.342;25.944;2022-09-21T15:04:48;100628.31;;;19.65;36.42
49122;BME280;35529;44.342;25.944;2022-09-21T15:07:41;100629.13;;;19.66;36.08
49122;BME280;35529;44.342;25.944;2022-09-21T15:16:04;100637.56;;;19.25;36.78
49122;BME280;35529;44.342;25.944;2022-09-21T15:18:41;100627.09;;;19.29;36.43
49122;BME280;35529;44.342;25.944;2022-09-21T15:21:22;100631.09;;;19.26;36.67
49122;BME280;35529;44.342;25.944;2022-09-21T15:23:53;100636.47;;;19.26;37.22
49122;BME280;35529;44.342;25.944;2022-09-21T15:26:24;100636.97;;;19.23;37.25
49122;BME280;35529;44.342;25.944;2022-09-21T15:29:03;100630.22;;;19.20;37.50
49122;BME280;35529;44.342;25.944;2022-09-21T15:31:38;100639.31;;;19.14;37.56
49122;BME280;35529;44.342;25.944;2022-09-21T15:34:07;100632.59;;;18.95;38.22
49122;BME280;35529;44.342;25.944;2022-09-21T15:36:36;100643.75;;;18.86;37.97
49122;BME280;35529;44.342;25.944;2022-09-21T15:39:27;100654.94;;;18.78;38.43
49122;BME280;35529;44.342;25.944;2022-09-21T15:44:50;100645.31;;;18.48;38.86